Home > Products > Valid Products > MTR

000
SAUS41 KPHI 310255
MTR12N
METAR K12N 310254Z AUTO 00000KT 22/22 A2987 RMK AO1 SLP106 T02220222
51010





000
SAUS41 KPHI 310155
MTR12N
METAR K12N 310154Z AUTO 00000KT 23/22 A2987 RMK AO1 SLP106 T02280222





000
SAUS41 KPHI 310055
MTR12N
METAR K12N 310054Z AUTO 00000KT 24/23 A2985 RMK AO1 SLP100 T02390233





000
SAUS41 KPHI 310055
MTR12N
METAR K12N 310054Z AUTO 00000KT 24/23 A2985 RMK AO1 SLP100 T02390233





000
SAUS41 KPHI 302355
MTR12N
METAR K12N 302354Z AUTO 00000KT 25/24 A2984 RMK AO1 SLP095 60068
T02500239 10283 20228 53009





000
SAUS41 KPHI 302355
MTR12N
METAR K12N 302354Z AUTO 00000KT 25/24 A2984 RMK AO1 SLP095 60068
T02500239 10283 20228 53009





000
SAUS41 KPHI 302255
MTR12N
METAR K12N 302254Z AUTO 21004KT 26/23 A2983 RMK AO1 SLP092 T02610233





000
SAUS41 KPHI 302255
MTR12N
METAR K12N 302254Z AUTO 21004KT 26/23 A2983 RMK AO1 SLP092 T02610233





000
SAUS41 KPHI 302155
MTR12N
METAR K12N 302154Z AUTO 21005KT 26/23 A2981 RMK AO1 SLP087 T02560233





000
SAUS41 KPHI 302055
MTR12N
METAR K12N 302054Z AUTO 22005KT 24/23 A2981 RMK AO1 SLP087 60068
T02440228 58013





000
SAUS41 KPHI 302055
MTR12N
METAR K12N 302054Z AUTO 22005KT 24/23 A2981 RMK AO1 SLP087 60068
T02440228 58013





000
SAUS41 KPHI 301955
MTR12N
METAR K12N 301954Z AUTO 23003KT 23/22 A2983 RMK AO1 SLP095 P0052
T02330222





000
SAUS41 KPHI 301955
MTR12N
METAR K12N 301954Z AUTO 23003KT 23/22 A2983 RMK AO1 SLP095 P0052
T02330222





000
SAUS41 KPHI 301855
MTR12N
METAR K12N 301854Z AUTO 36003KT 24/23 A2987 RMK AO1 SLP105 P0016
T02390228





000
SAUS41 KPHI 301755
MTR12N
METAR K12N 301754Z AUTO 23006KT 28/23 A2985 RMK AO1 SLP098 6////
T02830233 10294 20244 58015





000
SAUS41 KPHI 301655
MTR12N
METAR K12N 301654Z AUTO 20007KT 180V250 28/24 A2987 RMK AO1 SLP106
T02830239 PNO $





000
SAUS41 KPHI 301556
MTR12N
METAR K12N 301554Z AUTO 22008KT 140V250 27/23 A2990 RMK AO1 SLP116
T02670233





000
SAUS41 KPHI 301556
MTR12N
METAR K12N 301554Z AUTO 22008KT 140V250 27/23 A2990 RMK AO1 SLP116
T02670233





000
SAUS41 KPHI 301455
MTR12N
METAR K12N 301454Z AUTO VRB04KT 26/23 A2990 RMK AO1 SLP115 T02610228
56008





000
SAUS41 KPHI 301355
MTR12N
METAR K12N 301354Z AUTO 22006KT 26/23 A2990 RMK AO1 SLP115 T02560228





000
SAUS41 KPHI 301355
MTR12N
METAR K12N 301354Z AUTO 22006KT 26/23 A2990 RMK AO1 SLP115 T02560228





000
SAUS41 KPHI 301255
MTR12N
METAR K12N 301254Z AUTO VRB03KT 25/23 A2991 RMK AO1 SLP121 T02500233





000
SAUS41 KPHI 301255
MTR12N
METAR K12N 301254Z AUTO VRB03KT 25/23 A2991 RMK AO1 SLP121 T02500233





000
SAUS41 KPHI 301155
MTR12N
METAR K12N 301154Z AUTO 23003KT 25/23 A2992 RMK AO1 SLP122 T02500233
10250 20211 50001





000
SAUS41 KPHI 301155
MTR12N
METAR K12N 301154Z AUTO 23003KT 25/23 A2992 RMK AO1 SLP122 T02500233
10250 20211 50001





000
SAUS41 KPHI 301055
MTR12N
METAR K12N 301054Z AUTO 00000KT 23/22 A2992 RMK AO1 SLP123 T02280222





000
SAUS41 KPHI 301055
MTR12N
METAR K12N 301054Z AUTO 00000KT 23/22 A2992 RMK AO1 SLP123 T02280222





000
SAUS41 KPHI 300955
MTR12N
METAR K12N 300954Z AUTO 00000KT 22/21 A2992 RMK AO1 SLP121 T02170211





000
SAUS41 KPHI 300855
MTR12N
METAR K12N 300854Z AUTO 00000KT 22/21 A2992 RMK AO1 SLP120 T02170211
58012





000
SAUS41 KPHI 300755
MTR12N
METAR K12N 300754Z AUTO 00000KT 22/22 A2993 RMK AO1 SLP124 T02220217





000
SAUS41 KPHI 300655
MTR12N
METAR K12N 300654Z AUTO 00000KT 22/21 A2994 RMK AO1 SLP129 T02170211





000
SAUS41 KPHI 300555
MTR12N
METAR K12N 300554Z AUTO 00000KT 22/21 A2995 RMK AO1 SLP132 T02170211
10267 20217 58001





000
SAUS41 KPHI 300555
MTR12N
METAR K12N 300554Z AUTO 00000KT 22/21 A2995 RMK AO1 SLP132 T02170211
10267 20217 58001





000
SAUS41 KPHI 300455
MTR12N
METAR K12N 300454Z AUTO 00000KT 22/21 A2996 RMK AO1 SLP134 T02170206
403280178





000
SAUS41 KPHI 300355
MTR12N
METAR K12N 300354Z AUTO 00000KT 22/21 A2996 RMK AO1 SLP137 T02170211





000
SAUS41 KPHI 300255
MTR12N
METAR K12N 300254Z AUTO 00000KT 22/21 A2996 RMK AO1 SLP135 T02220211
51005





000
SAUS41 KPHI 300155
MTR12N
METAR K12N 300154Z AUTO 00000KT 23/22 A2996 RMK AO1 SLP134 T02280217





000
SAUS41 KPHI 300155
MTR12N
METAR K12N 300154Z AUTO 00000KT 23/22 A2996 RMK AO1 SLP134 T02280217





000
SAUS41 KPHI 300055
MTR12N
METAR K12N 300054Z AUTO 00000KT 24/22 A2994 RMK AO1 SLP131 T02390222





000
SAUS41 KPHI 292355
MTR12N
METAR K12N 292354Z AUTO 00000KT 27/22 A2994 RMK AO1 SLP130 T02670222
10328 20267 55005





000
SAUS41 KPHI 292255
MTR12N
METAR K12N 292254Z AUTO 00000KT 31/21 A2994 RMK AO1 SLP128 T03060206





000
SAUS41 KPHI 292255
MTR12N
METAR K12N 292254Z AUTO 00000KT 31/21 A2994 RMK AO1 SLP128 T03060206





000
SAUS41 KPHI 292155
MTR12N
METAR K12N 292154Z AUTO 24004KT 31/18 A2994 RMK AO1 SLP130 T03110183





000
SAUS41 KPHI 292055
MTR12N
METAR K12N 292054Z AUTO 24005KT 32/17 A2996 RMK AO1 SLP134 T03170172
56014





000
SAUS41 KPHI 291955
MTR12N
METAR K12N 291954Z AUTO VRB04KT 32/19 A2996 RMK AO1 SLP136 T03220194





000
SAUS41 KPHI 291955
MTR12N
METAR K12N 291954Z AUTO VRB04KT 32/19 A2996 RMK AO1 SLP136 T03220194





000
SAUS41 KPHI 291855
MTR12N
METAR K12N 291854Z AUTO 21006KT 32/18 A2998 RMK AO1 SLP144 T03170183





000
SAUS41 KPHI 291755
MTR12N
METAR K12N 291754Z AUTO 00000KT 32/18 A3000 RMK AO1 SLP148 T03220178
10322 20217 56009





000
SAUS41 KPHI 291655
MTR12N
METAR K12N 291654Z AUTO VRB04KT 32/19 A3000 RMK AO1 SLP150 T03220194





000
SAUS41 KPHI 291555
MTR12N
METAR K12N 291554Z AUTO 00000KT 30/20 A3001 RMK AO1 SLP154 T03000200





000
SAUS41 KPHI 291455
MTR12N
METAR K12N 291454Z AUTO VRB03KT 29/21 A3002 RMK AO1 SLP157 T02940206
58001





000
SAUS41 KPHI 291455
MTR12N
METAR K12N 291454Z AUTO VRB03KT 29/21 A3002 RMK AO1 SLP157 T02940206
58001





000
SAUS41 KPHI 291355
MTR12N
METAR K12N 291354Z AUTO 08003KT 28/21 A3003 RMK AO1 SLP158 T02780206





000
SAUS41 KPHI 291255
MTR12N
METAR K12N 291254Z AUTO 00000KT 25/20 A3003 RMK AO1 SLP160 T02500200





000
SAUS41 KPHI 291155
MTR12N
METAR K12N 291154Z AUTO 00000KT 22/20 A3002 RMK AO1 SLP159 T02170200
10217 20178 50009





000
SAUS41 KPHI 291055
MTR12N
METAR K12N 291054Z AUTO 00000KT 18/18 A3003 RMK AO1 SLP159 T01830183





000
SAUS41 KPHI 290955
MTR12N
METAR K12N 290954Z AUTO 00000KT 18/18 A3001 RMK AO1 SLP154 T01830178





000
SAUS41 KPHI 290855
MTR12N
METAR K12N 290854Z AUTO 00000KT 19/18 A3000 RMK AO1 SLP148 T01890183
55003





000
SAUS41 KPHI 290855
MTR12N
METAR K12N 290854Z AUTO 00000KT 19/18 A3000 RMK AO1 SLP148 T01890183
55003





000
SAUS41 KPHI 290755
MTR12N
METAR K12N 290754Z AUTO 00000KT 19/18 A2999 RMK AO1 SLP146 T01890183





000
SAUS41 KPHI 290655
MTR12N
METAR K12N 290654Z AUTO 00000KT 19/19 A3000 RMK AO1 SLP150 T01940189





000
SAUS41 KPHI 290655
MTR12N
METAR K12N 290654Z AUTO 00000KT 19/19 A3000 RMK AO1 SLP150 T01940189





000
SAUS41 KPHI 290555
MTR12N
METAR K12N 290554Z AUTO 00000KT 19/19 A3001 RMK AO1 SLP151 T01940189
10261 20194 50001





000
SAUS41 KPHI 290555
MTR12N
METAR K12N 290554Z AUTO 00000KT 19/19 A3001 RMK AO1 SLP151 T01940189
10261 20194 50001





000
SAUS41 KPHI 290455
MTR12N
METAR K12N 290454Z AUTO 00000KT 19/19 A3002 RMK AO1 SLP156 T01940189
403280178





000
SAUS41 KPHI 290355
MTR12N
METAR K12N 290354Z AUTO 00000KT 21/19 A3001 RMK AO1 SLP154 T02060194





000
SAUS41 KPHI 290255
MTR12N
METAR K12N 290254Z AUTO 00000KT 21/20 A3000 RMK AO1 SLP150 T02110200
50009





000
SAUS41 KPHI 290155
MTR12N
METAR K12N 290154Z AUTO 00000KT 22/21 A3001 RMK AO1 SLP152 T02170206





000
SAUS41 KPHI 290155
MTR12N
METAR K12N 290154Z AUTO 00000KT 22/21 A3001 RMK AO1 SLP152 T02170206





000
SAUS41 KPHI 290055
MTR12N
METAR K12N 290054Z AUTO 00000KT 23/21 A3000 RMK AO1 SLP149 T02330206





000
SAUS41 KPHI 282355
MTR12N
METAR K12N 282354Z AUTO 00000KT 26/20 A2997 RMK AO1 SLP142 T02610200
10328 20256 56001





000
SAUS41 KPHI 282355
MTR12N
METAR K12N 282354Z AUTO 00000KT 26/20 A2997 RMK AO1 SLP142 T02610200
10328 20256 56001





000
SAUS41 KPHI 282255
MTR12N
METAR K12N 282254Z AUTO 00000KT 29/19 A2998 RMK AO1 SLP142 T02940189





000
SAUS41 KPHI 282155
MTR12N
METAR K12N 282154Z AUTO VRB03KT 32/17 A2997 RMK AO1 SLP138 T03220167





000
SAUS41 KPHI 282055
MTR12N
METAR K12N 282054Z AUTO VRB03KT 32/17 A2998 RMK AO1 SLP141 T03220167
56006





000
SAUS41 KPHI 281955
MTR12N
METAR K12N 281954Z AUTO 31005KT 32/15 A2999 RMK AO1 SLP144 T03220150





000
SAUS41 KPHI 281955
MTR12N
METAR K12N 281954Z AUTO 31005KT 32/15 A2999 RMK AO1 SLP144 T03220150





000
SAUS41 KPHI 281855
MTR12N
METAR K12N 281854Z AUTO VRB05KT 32/16 A2998 RMK AO1 SLP143 T03220161





000
SAUS41 KPHI 281855
MTR12N
METAR K12N 281854Z AUTO VRB05KT 32/16 A2998 RMK AO1 SLP143 T03220161





000
SAUS41 KPHI 281755
MTR12N
METAR K12N 281754Z AUTO 00000KT 31/16 A3000 RMK AO1 SLP148 T03110161
10311 20211 58010





000
SAUS41 KPHI 281655
MTR12N
METAR K12N 281654Z AUTO VRB03KT 31/18 A3001 RMK AO1 SLP152 T03110183





000
SAUS41 KPHI 281655
MTR12N
METAR K12N 281654Z AUTO VRB03KT 31/18 A3001 RMK AO1 SLP152 T03110183





000
SAUS41 KPHI 281555
MTR12N
METAR K12N 281554Z AUTO VRB04KT 29/19 A3002 RMK AO1 SLP157 T02940194





000
SAUS41 KPHI 281455
MTR12N
METAR K12N 281454Z AUTO 04003KT 28/19 A3003 RMK AO1 SLP158 T02830194
58006





000
SAUS41 KPHI 281355
MTR12N
METAR K12N 281354Z AUTO 00000KT 27/21 A3003 RMK AO1 SLP160 T02670211





000
SAUS41 KPHI 281355
MTR12N
METAR K12N 281354Z AUTO 00000KT 27/21 A3003 RMK AO1 SLP160 T02670211





000
SAUS41 KPHI 281255
MTR12N
METAR K12N 281254Z AUTO 00000KT 24/21 A3004 RMK AO1 SLP164 T02440211





000
SAUS41 KPHI 281255
MTR12N
METAR K12N 281254Z AUTO 00000KT 24/21 A3004 RMK AO1 SLP164 T02440211





000
SAUS41 KPHI 281155
MTR12N
METAR K12N 281154Z AUTO 00000KT 21/21 A3004 RMK AO1 SLP166 T02110206
10211 20178 51006





000
SAUS41 KPHI 281155
MTR12N
METAR K12N 281154Z AUTO 00000KT 21/21 A3004 RMK AO1 SLP166 T02110206
10211 20178 51006





000
SAUS41 KPHI 281055
MTR12N
METAR K12N 281054Z AUTO 00000KT 19/19 A3004 RMK AO1 SLP165 T01890189





000
SAUS41 KPHI 280955
MTR12N
METAR K12N 280954Z AUTO 00000KT 18/18 A3003 RMK AO1 SLP161 T01830178





000
SAUS41 KPHI 280855
MTR12N
METAR K12N 280854Z AUTO 00000KT 18/18 A3002 RMK AO1 SLP159 T01830183
58003





000
SAUS41 KPHI 280755
MTR12N
METAR K12N 280754Z AUTO 00000KT 19/19 A3003 RMK AO1 SLP160 T01890189





000
SAUS41 KPHI 280755
MTR12N
METAR K12N 280754Z AUTO 00000KT 19/19 A3003 RMK AO1 SLP160 T01890189





000
SAUS41 KPHI 280655
MTR12N
METAR K12N 280654Z AUTO 00000KT 19/19 A3003 RMK AO1 SLP162 T01940189





000
SAUS41 KPHI 280655
MTR12N
METAR K12N 280654Z AUTO 00000KT 19/19 A3003 RMK AO1 SLP162 T01940189





000
SAUS41 KPHI 280555
MTR12N
METAR K12N 280554Z AUTO 00000KT 19/19 A3003 RMK AO1 SLP161 T01940194
10250 20194 58001





000
SAUS41 KPHI 280456
MTR12N
METAR K12N 280454Z AUTO 00000KT 20/20 A3004 RMK AO1 SLP165 T02000200
402890194





000
SAUS41 KPHI 280355
MTR12N
METAR K12N 280354Z AUTO 00000KT 21/20 A3004 RMK AO1 SLP165 T02060200





000
SAUS41 KPHI 280355
MTR12N
METAR K12N 280354Z AUTO 00000KT 21/20 A3004 RMK AO1 SLP165 T02060200





    US Dept of Commerce
    National Oceanic and Atmospheric Administration
    National Weather Service
    1325 East West Highway
    Silver Spring, MD 20910
    Page Author: NWS Internet Services Team
Disclaimer
Information Quality
Credits
Glossary
Privacy Policy
Freedom of Information Act (FOIA)
About Us
Career Opportunities